Fredericksburg, Pennsylvania
Current Conditions -  °F | °C
As of 10:00 PM on Monday 26 Jan 2015 (Local Time) from KMUI Reporting Station
Overcast Overcast  
Wind Chill: 16°   Ceiling: 2800
Heat Index: 25°   Visibility: 9mi
Dew Point: 19°   Wind: 8mph
Humidity: 80%   Direction: 40°NE
Pressure: 29.78"   Gusts: NA
Location:  40.45°N, 76.43°W
Report Text: KMUI 270300Z AUTO 04007KT 9SM SCT022 OVC028 M04/M07 A2978 RMK AO2 UPB0206 CIG 022V028
Loading
Personal Weather Stations






























Interactive Weather Map New forecast layout! Learn more

10-Day Weather Forecast

Advertisements
Track Severe Weather on mobile